sensor_id;sensor_type;location;lat;lon;timestamp;P1;durP1;ratioP1;P2;durP2;ratioP2
5981;SDS011;3018;48.730;9.336;2023-06-24T00:02:07;3.97;;;3.72;;
5981;SDS011;3018;48.730;9.336;2023-06-24T00:04:35;4.15;;;3.72;;
5981;SDS011;3018;48.730;9.336;2023-06-24T00:07:01;3.85;;;3.63;;
5981;SDS011;3018;48.730;9.336;2023-06-24T00:09:27;4.60;;;4.30;;
5981;SDS011;3018;48.730;9.336;2023-06-24T00:11:54;3.92;;;3.60;;
5981;SDS011;3018;48.730;9.336;2023-06-24T00:14:21;4.18;;;3.95;;
5981;SDS011;3018;48.730;9.336;2023-06-24T00:16:49;4.40;;;4.10;;
5981;SDS011;3018;48.730;9.336;2023-06-24T00:19:16;3.97;;;3.78;;
5981;SDS011;3018;48.730;9.336;2023-06-24T00:21:45;3.95;;;3.65;;
5981;SDS011;3018;48.730;9.336;2023-06-24T00:24:11;4.07;;;3.78;;
5981;SDS011;3018;48.730;9.336;2023-06-24T00:26:37;4.07;;;3.88;;
5981;SDS011;3018;48.730;9.336;2023-06-24T00:29:03;4.50;;;4.13;;
5981;SDS011;3018;48.730;9.336;2023-06-24T00:31:30;4.20;;;3.95;;
5981;SDS011;3018;48.730;9.336;2023-06-24T00:33:56;4.20;;;3.90;;
5981;SDS011;3018;48.730;9.336;2023-06-24T00:36:22;4.30;;;4.00;;
5981;SDS011;3018;48.730;9.336;2023-06-24T00:38:50;4.53;;;4.22;;
5981;SDS011;3018;48.730;9.336;2023-06-24T00:41:16;3.90;;;3.70;;
5981;SDS011;3018;48.730;9.336;2023-06-24T00:43:43;4.38;;;4.07;;
5981;SDS011;3018;48.730;9.336;2023-06-24T00:46:09;4.13;;;3.83;;
5981;SDS011;3018;48.730;9.336;2023-06-24T00:48:36;4.35;;;4.05;;
5981;SDS011;3018;48.730;9.336;2023-06-24T00:51:02;4.65;;;4.35;;
5981;SDS011;3018;48.730;9.336;2023-06-24T00:53:28;4.30;;;4.00;;
5981;SDS011;3018;48.730;9.336;2023-06-24T00:55:56;4.40;;;4.00;;
5981;SDS011;3018;48.730;9.336;2023-06-24T00:58:26;4.72;;;4.32;;
5981;SDS011;3018;48.730;9.336;2023-06-24T01:00:55;4.60;;;4.30;;
5981;SDS011;3018;48.730;9.336;2023-06-24T01:03:23;4.35;;;4.05;;
5981;SDS011;3018;48.730;9.336;2023-06-24T01:05:50;4.25;;;3.95;;
5981;SDS011;3018;48.730;9.336;2023-06-24T01:08:16;4.05;;;3.70;;
5981;SDS011;3018;48.730;9.336;2023-06-24T01:10:44;5.18;;;4.78;;
5981;SDS011;3018;48.730;9.336;2023-06-24T01:13:12;4.38;;;4.07;;
5981;SDS011;3018;48.730;9.336;2023-06-24T01:15:38;4.15;;;3.95;;
5981;SDS011;3018;48.730;9.336;2023-06-24T01:18:06;4.65;;;4.30;;
5981;SDS011;3018;48.730;9.336;2023-06-24T01:20:36;4.15;;;3.95;;
5981;SDS011;3018;48.730;9.336;2023-06-24T01:28:59;4.75;;;4.35;;
5981;SDS011;3018;48.730;9.336;2023-06-24T01:31:35;5.15;;;4.65;;
5981;SDS011;3018;48.730;9.336;2023-06-24T01:34:06;4.80;;;4.40;;
5981;SDS011;3018;48.730;9.336;2023-06-24T01:36:37;5.28;;;4.95;;
5981;SDS011;3018;48.730;9.336;2023-06-24T01:39:06;4.88;;;4.47;;
5981;SDS011;3018;48.730;9.336;2023-06-24T01:41:36;4.68;;;4.38;;
5981;SDS011;3018;48.730;9.336;2023-06-24T01:44:06;4.97;;;4.53;;
5981;SDS011;3018;48.730;9.336;2023-06-24T01:46:36;4.97;;;4.68;;
5981;SDS011;3018;48.730;9.336;2023-06-24T01:49:03;4.40;;;4.00;;
5981;SDS011;3018;48.730;9.336;2023-06-24T01:51:30;4.57;;;4.22;;
5981;SDS011;3018;48.730;9.336;2023-06-24T01:54:00;5.72;;;4.97;;
5981;SDS011;3018;48.730;9.336;2023-06-24T01:56:26;4.63;;;4.32;;
5981;SDS011;3018;48.730;9.336;2023-06-24T01:58:54;4.80;;;4.50;;
5981;SDS011;3018;48.730;9.336;2023-06-24T02:01:21;4.78;;;4.38;;
5981;SDS011;3018;48.730;9.336;2023-06-24T02:03:49;4.82;;;4.53;;
5981;SDS011;3018;48.730;9.336;2023-06-24T02:06:16;4.72;;;4.43;;
5981;SDS011;3018;48.730;9.336;2023-06-24T02:08:43;4.80;;;4.40;;
5981;SDS011;3018;48.730;9.336;2023-06-24T02:11:09;5.25;;;4.60;;
5981;SDS011;3018;48.730;9.336;2023-06-24T02:13:37;4.70;;;4.35;;
5981;SDS011;3018;48.730;9.336;2023-06-24T02:16:06;4.85;;;4.55;;
5981;SDS011;3018;48.730;9.336;2023-06-24T02:18:32;4.32;;;4.03;;
5981;SDS011;3018;48.730;9.336;2023-06-24T02:21:01;5.03;;;4.65;;
5981;SDS011;3018;48.730;9.336;2023-06-24T02:23:29;4.95;;;4.18;;
5981;SDS011;3018;48.730;9.336;2023-06-24T02:25:56;5.00;;;4.70;;
5981;SDS011;3018;48.730;9.336;2023-06-24T02:28:22;4.80;;;4.40;;
5981;SDS011;3018;48.730;9.336;2023-06-24T02:30:49;4.47;;;4.18;;
5981;SDS011;3018;48.730;9.336;2023-06-24T02:33:16;5.03;;;4.60;;
5981;SDS011;3018;48.730;9.336;2023-06-24T02:35:42;4.03;;;3.72;;
5981;SDS011;3018;48.730;9.336;2023-06-24T02:38:12;4.35;;;4.05;;
5981;SDS011;3018;48.730;9.336;2023-06-24T02:40:38;5.13;;;4.72;;
5981;SDS011;3018;48.730;9.336;2023-06-24T02:43:05;5.25;;;4.95;;
5981;SDS011;3018;48.730;9.336;2023-06-24T02:45:31;5.10;;;4.70;;
5981;SDS011;3018;48.730;9.336;2023-06-24T02:47:57;5.43;;;4.93;;
5981;SDS011;3018;48.730;9.336;2023-06-24T02:50:24;5.40;;;4.90;;
5981;SDS011;3018;48.730;9.336;2023-06-24T02:52:51;5.22;;;4.90;;
5981;SDS011;3018;48.730;9.336;2023-06-24T02:55:19;5.30;;;4.90;;
5981;SDS011;3018;48.730;9.336;2023-06-24T02:57:46;5.82;;;5.40;;
5981;SDS011;3018;48.730;9.336;2023-06-24T03:00:13;5.50;;;5.10;;
5981;SDS011;3018;48.730;9.336;2023-06-24T03:02:39;4.90;;;4.55;;
5981;SDS011;3018;48.730;9.336;2023-06-24T03:05:06;5.10;;;4.80;;
5981;SDS011;3018;48.730;9.336;2023-06-24T03:07:33;5.30;;;4.82;;
5981;SDS011;3018;48.730;9.336;2023-06-24T03:10:01;5.13;;;4.72;;
5981;SDS011;3018;48.730;9.336;2023-06-24T03:12:31;5.03;;;4.63;;
5981;SDS011;3018;48.730;9.336;2023-06-24T03:14:57;7.30;;;4.97;;
5981;SDS011;3018;48.730;9.336;2023-06-24T03:17:24;5.40;;;5.00;;
5981;SDS011;3018;48.730;9.336;2023-06-24T03:19:51;5.55;;;5.07;;
5981;SDS011;3018;48.730;9.336;2023-06-24T03:22:17;6.18;;;4.72;;
5981;SDS011;3018;48.730;9.336;2023-06-24T03:24:43;4.85;;;4.45;;
5981;SDS011;3018;48.730;9.336;2023-06-24T03:27:10;5.20;;;4.82;;
5981;SDS011;3018;48.730;9.336;2023-06-24T03:29:37;5.28;;;4.93;;
5981;SDS011;3018;48.730;9.336;2023-06-24T03:32:04;5.40;;;5.05;;
5981;SDS011;3018;48.730;9.336;2023-06-24T03:34:30;5.13;;;4.82;;
5981;SDS011;3018;48.730;9.336;2023-06-24T03:36:56;6.72;;;5.07;;
5981;SDS011;3018;48.730;9.336;2023-06-24T03:39:22;5.82;;;5.28;;
5981;SDS011;3018;48.730;9.336;2023-06-24T03:41:49;4.85;;;4.55;;
5981;SDS011;3018;48.730;9.336;2023-06-24T03:44:15;4.88;;;4.57;;
5981;SDS011;3018;48.730;9.336;2023-06-24T03:46:43;5.32;;;5.03;;
5981;SDS011;3018;48.730;9.336;2023-06-24T03:49:09;5.13;;;4.82;;
5981;SDS011;3018;48.730;9.336;2023-06-24T03:51:35;5.90;;;5.30;;
5981;SDS011;3018;48.730;9.336;2023-06-24T03:54:02;7.47;;;4.93;;
5981;SDS011;3018;48.730;9.336;2023-06-24T03:56:28;6.57;;;5.65;;
5981;SDS011;3018;48.730;9.336;2023-06-24T03:58:54;5.43;;;5.05;;
5981;SDS011;3018;48.730;9.336;2023-06-24T04:01:20;5.60;;;5.10;;
5981;SDS011;3018;48.730;9.336;2023-06-24T04:03:49;5.05;;;4.75;;
5981;SDS011;3018;48.730;9.336;2023-06-24T04:06:15;5.38;;;4.97;;
5981;SDS011;3018;48.730;9.336;2023-06-24T04:08:41;6.07;;;5.57;;
5981;SDS011;3018;48.730;9.336;2023-06-24T04:11:09;5.93;;;5.43;;
5981;SDS011;3018;48.730;9.336;2023-06-24T04:13:36;5.65;;;5.25;;
5981;SDS011;3018;48.730;9.336;2023-06-24T04:16:02;5.28;;;4.80;;
5981;SDS011;3018;48.730;9.336;2023-06-24T04:18:29;5.82;;;5.40;;
5981;SDS011;3018;48.730;9.336;2023-06-24T04:20:56;6.03;;;5.53;;
5981;SDS011;3018;48.730;9.336;2023-06-24T04:23:23;5.72;;;5.15;;
5981;SDS011;3018;48.730;9.336;2023-06-24T04:25:49;5.65;;;5.25;;
5981;SDS011;3018;48.730;9.336;2023-06-24T04:28:15;5.88;;;5.47;;
5981;SDS011;3018;48.730;9.336;2023-06-24T04:30:41;6.53;;;5.70;;
5981;SDS011;3018;48.730;9.336;2023-06-24T04:33:08;5.72;;;5.32;;
5981;SDS011;3018;48.730;9.336;2023-06-24T04:35:34;5.80;;;5.40;;
5981;SDS011;3018;48.730;9.336;2023-06-24T04:38:02;8.05;;;6.45;;
5981;SDS011;3018;48.730;9.336;2023-06-24T04:40:28;6.57;;;6.07;;
5981;SDS011;3018;48.730;9.336;2023-06-24T04:42:55;6.03;;;5.38;;
5981;SDS011;3018;48.730;9.336;2023-06-24T04:45:21;6.53;;;5.93;;
5981;SDS011;3018;48.730;9.336;2023-06-24T04:47:48;6.70;;;5.68;;
5981;SDS011;3018;48.730;9.336;2023-06-24T04:50:14;7.10;;;6.45;;
5981;SDS011;3018;48.730;9.336;2023-06-24T04:52:40;7.28;;;6.65;;
5981;SDS011;3018;48.730;9.336;2023-06-24T04:55:08;7.28;;;6.68;;
5981;SDS011;3018;48.730;9.336;2023-06-24T04:57:34;6.82;;;6.05;;
5981;SDS011;3018;48.730;9.336;2023-06-24T05:00:01;7.30;;;6.72;;
5981;SDS011;3018;48.730;9.336;2023-06-24T05:02:27;8.80;;;7.85;;
5981;SDS011;3018;48.730;9.336;2023-06-24T05:04:54;9.50;;;7.00;;
5981;SDS011;3018;48.730;9.336;2023-06-24T05:07:20;7.05;;;6.45;;
5981;SDS011;3018;48.730;9.336;2023-06-24T05:09:46;7.90;;;7.13;;
5981;SDS011;3018;48.730;9.336;2023-06-24T05:12:14;8.25;;;6.80;;
5981;SDS011;3018;48.730;9.336;2023-06-24T05:14:41;7.20;;;6.65;;
5981;SDS011;3018;48.730;9.336;2023-06-24T05:17:07;7.13;;;6.43;;
5981;SDS011;3018;48.730;9.336;2023-06-24T05:19:33;6.75;;;6.15;;
5981;SDS011;3018;48.730;9.336;2023-06-24T05:21:59;8.38;;;7.05;;
5981;SDS011;3018;48.730;9.336;2023-06-24T05:24:26;6.72;;;5.95;;
5981;SDS011;3018;48.730;9.336;2023-06-24T05:26:52;6.72;;;6.03;;
5981;SDS011;3018;48.730;9.336;2023-06-24T05:29:20;6.70;;;6.15;;
5981;SDS011;3018;48.730;9.336;2023-06-24T05:31:46;7.55;;;6.85;;
5981;SDS011;3018;48.730;9.336;2023-06-24T05:34:12;7.20;;;6.70;;
5981;SDS011;3018;48.730;9.336;2023-06-24T05:36:39;7.28;;;6.68;;
5981;SDS011;3018;48.730;9.336;2023-06-24T05:39:05;6.93;;;6.15;;
5981;SDS011;3018;48.730;9.336;2023-06-24T05:41:33;7.25;;;6.55;;
5981;SDS011;3018;48.730;9.336;2023-06-24T05:44:02;8.45;;;7.35;;
5981;SDS011;3018;48.730;9.336;2023-06-24T05:46:30;8.63;;;7.75;;
5981;SDS011;3018;48.730;9.336;2023-06-24T05:48:56;10.55;;;8.05;;
5981;SDS011;3018;48.730;9.336;2023-06-24T05:51:22;7.63;;;6.68;;
5981;SDS011;3018;48.730;9.336;2023-06-24T05:53:49;7.93;;;7.05;;
5981;SDS011;3018;48.730;9.336;2023-06-24T05:56:15;9.13;;;6.68;;
5981;SDS011;3018;48.730;9.336;2023-06-24T05:58:41;7.22;;;6.53;;
5981;SDS011;3018;48.730;9.336;2023-06-24T06:01:09;8.00;;;7.20;;
5981;SDS011;3018;48.730;9.336;2023-06-24T06:03:36;7.45;;;6.75;;
5981;SDS011;3018;48.730;9.336;2023-06-24T06:06:03;7.35;;;6.75;;
5981;SDS011;3018;48.730;9.336;2023-06-24T06:08:29;7.13;;;6.53;;
5981;SDS011;3018;48.730;9.336;2023-06-24T06:10:55;6.88;;;6.38;;
5981;SDS011;3018;48.730;9.336;2023-06-24T06:13:22;6.90;;;6.30;;
5981;SDS011;3018;48.730;9.336;2023-06-24T06:15:48;7.13;;;6.43;;
5981;SDS011;3018;48.730;9.336;2023-06-24T06:18:14;7.88;;;7.28;;
5981;SDS011;3018;48.730;9.336;2023-06-24T06:20:42;7.00;;;6.40;;
5981;SDS011;3018;48.730;9.336;2023-06-24T06:23:08;7.05;;;6.40;;
5981;SDS011;3018;48.730;9.336;2023-06-24T06:25:35;7.55;;;6.40;;
5981;SDS011;3018;48.730;9.336;2023-06-24T06:28:02;7.00;;;5.90;;
5981;SDS011;3018;48.730;9.336;2023-06-24T06:30:28;7.75;;;6.97;;
5981;SDS011;3018;48.730;9.336;2023-06-24T06:32:55;6.35;;;5.82;;
5981;SDS011;3018;48.730;9.336;2023-06-24T06:35:21;6.93;;;6.32;;
5981;SDS011;3018;48.730;9.336;2023-06-24T06:37:49;8.05;;;6.68;;
5981;SDS011;3018;48.730;9.336;2023-06-24T06:40:18;8.13;;;6.65;;
5981;SDS011;3018;48.730;9.336;2023-06-24T06:42:44;6.95;;;6.30;;
5981;SDS011;3018;48.730;9.336;2023-06-24T06:45:10;7.85;;;6.15;;
5981;SDS011;3018;48.730;9.336;2023-06-24T06:47:36;9.90;;;6.07;;
5981;SDS011;3018;48.730;9.336;2023-06-24T06:50:03;6.18;;;5.57;;
5981;SDS011;3018;48.730;9.336;2023-06-24T06:52:29;7.93;;;6.43;;
5981;SDS011;3018;48.730;9.336;2023-06-24T06:54:57;8.13;;;6.20;;
5981;SDS011;3018;48.730;9.336;2023-06-24T06:57:23;7.97;;;6.25;;
5981;SDS011;3018;48.730;9.336;2023-06-24T06:59:50;9.32;;;6.03;;
5981;SDS011;3018;48.730;9.336;2023-06-24T07:02:16;7.75;;;6.13;;
5981;SDS011;3018;48.730;9.336;2023-06-24T07:04:42;6.85;;;5.97;;
5981;SDS011;3018;48.730;9.336;2023-06-24T07:07:09;5.82;;;5.22;;
5981;SDS011;3018;48.730;9.336;2023-06-24T07:09:35;10.35;;;6.25;;
5981;SDS011;3018;48.730;9.336;2023-06-24T07:12:03;6.47;;;5.90;;
5981;SDS011;3018;48.730;9.336;2023-06-24T07:14:29;5.88;;;5.38;;
5981;SDS011;3018;48.730;9.336;2023-06-24T07:16:56;7.47;;;5.07;;
5981;SDS011;3018;48.730;9.336;2023-06-24T07:19:22;7.28;;;4.80;;
5981;SDS011;3018;48.730;9.336;2023-06-24T07:21:48;5.90;;;5.30;;
5981;SDS011;3018;48.730;9.336;2023-06-24T07:24:15;6.65;;;4.93;;
5981;SDS011;3018;48.730;9.336;2023-06-24T07:26:41;6.15;;;5.18;;
5981;SDS011;3018;48.730;9.336;2023-06-24T07:29:08;5.05;;;4.65;;
5981;SDS011;3018;48.730;9.336;2023-06-24T07:31:35;5.28;;;4.80;;
5981;SDS011;3018;48.730;9.336;2023-06-24T07:34:01;6.18;;;5.20;;
5981;SDS011;3018;48.730;9.336;2023-06-24T07:36:28;6.05;;;5.07;;
5981;SDS011;3018;48.730;9.336;2023-06-24T07:38:54;6.03;;;5.45;;
5981;SDS011;3018;48.730;9.336;2023-06-24T07:41:21;5.35;;;4.85;;
5981;SDS011;3018;48.730;9.336;2023-06-24T07:43:47;6.28;;;4.90;;
5981;SDS011;3018;48.730;9.336;2023-06-24T07:46:14;5.25;;;4.72;;
5981;SDS011;3018;48.730;9.336;2023-06-24T07:48:41;6.72;;;4.45;;
5981;SDS011;3018;48.730;9.336;2023-06-24T07:51:07;4.50;;;4.10;;
5981;SDS011;3018;48.730;9.336;2023-06-24T07:53:33;6.75;;;4.35;;
5981;SDS011;3018;48.730;9.336;2023-06-24T07:56:00;4.97;;;4.57;;
5981;SDS011;3018;48.730;9.336;2023-06-24T07:58:26;5.60;;;4.13;;
5981;SDS011;3018;48.730;9.336;2023-06-24T08:00:52;4.75;;;4.45;;
5981;SDS011;3018;48.730;9.336;2023-06-24T08:03:20;5.03;;;4.63;;
5981;SDS011;3018;48.730;9.336;2023-06-24T08:05:46;4.28;;;3.92;;
5981;SDS011;3018;48.730;9.336;2023-06-24T08:08:14;5.50;;;4.13;;
5981;SDS011;3018;48.730;9.336;2023-06-24T08:10:40;4.45;;;4.05;;
5981;SDS011;3018;48.730;9.336;2023-06-24T08:13:07;4.07;;;3.75;;
5981;SDS011;3018;48.730;9.336;2023-06-24T08:15:33;3.95;;;3.65;;
5981;SDS011;3018;48.730;9.336;2023-06-24T08:17:59;4.95;;;4.43;;
5981;SDS011;3018;48.730;9.336;2023-06-24T08:20:27;3.80;;;3.60;;
5981;SDS011;3018;48.730;9.336;2023-06-24T08:22:53;6.28;;;3.75;;
5981;SDS011;3018;48.730;9.336;2023-06-24T08:25:20;4.30;;;3.50;;
5981;SDS011;3018;48.730;9.336;2023-06-24T08:27:46;4.90;;;4.03;;
5981;SDS011;3018;48.730;9.336;2023-06-24T08:30:12;3.60;;;3.40;;
5981;SDS011;3018;48.730;9.336;2023-06-24T08:32:39;5.45;;;4.47;;
5981;SDS011;3018;48.730;9.336;2023-06-24T08:35:06;4.32;;;3.95;;
5981;SDS011;3018;48.730;9.336;2023-06-24T08:37:35;4.28;;;3.97;;
5981;SDS011;3018;48.730;9.336;2023-06-24T08:40:02;4.05;;;3.67;;
5981;SDS011;3018;48.730;9.336;2023-06-24T08:42:30;4.20;;;3.90;;
5981;SDS011;3018;48.730;9.336;2023-06-24T08:44:56;3.92;;;3.65;;
5981;SDS011;3018;48.730;9.336;2023-06-24T08:47:23;4.43;;;4.13;;
5981;SDS011;3018;48.730;9.336;2023-06-24T08:49:51;5.55;;;3.80;;
5981;SDS011;3018;48.730;9.336;2023-06-24T08:52:20;3.85;;;3.63;;
5981;SDS011;3018;48.730;9.336;2023-06-24T08:54:49;3.97;;;3.70;;
5981;SDS011;3018;48.730;9.336;2023-06-24T08:57:16;4.65;;;3.78;;
5981;SDS011;3018;48.730;9.336;2023-06-24T08:59:43;3.80;;;3.60;;
5981;SDS011;3018;48.730;9.336;2023-06-24T09:02:10;3.55;;;3.35;;
5981;SDS011;3018;48.730;9.336;2023-06-24T09:04:36;4.88;;;3.78;;
5981;SDS011;3018;48.730;9.336;2023-06-24T09:07:03;3.35;;;3.25;;
5981;SDS011;3018;48.730;9.336;2023-06-24T09:09:29;3.38;;;2.95;;
5981;SDS011;3018;48.730;9.336;2023-06-24T09:11:57;3.35;;;3.15;;
5981;SDS011;3018;48.730;9.336;2023-06-24T09:14:24;3.00;;;2.80;;
5981;SDS011;3018;48.730;9.336;2023-06-24T09:16:51;3.72;;;3.47;;
5981;SDS011;3018;48.730;9.336;2023-06-24T09:19:19;3.60;;;2.90;;
5981;SDS011;3018;48.730;9.336;2023-06-24T09:21:46;2.90;;;2.80;;
5981;SDS011;3018;48.730;9.336;2023-06-24T09:24:12;3.42;;;3.22;;
5981;SDS011;3018;48.730;9.336;2023-06-24T09:26:41;3.63;;;3.28;;
5981;SDS011;3018;48.730;9.336;2023-06-24T09:29:09;3.83;;;3.50;;
5981;SDS011;3018;48.730;9.336;2023-06-24T09:31:35;3.50;;;3.30;;
5981;SDS011;3018;48.730;9.336;2023-06-24T09:34:02;3.28;;;3.17;;
5981;SDS011;3018;48.730;9.336;2023-06-24T09:36:28;3.35;;;3.15;;
5981;SDS011;3018;48.730;9.336;2023-06-24T09:38:54;3.72;;;3.25;;
5981;SDS011;3018;48.730;9.336;2023-06-24T09:41:22;2.72;;;2.63;;
5981;SDS011;3018;48.730;9.336;2023-06-24T09:43:50;5.05;;;2.70;;
5981;SDS011;3018;48.730;9.336;2023-06-24T09:46:17;3.10;;;2.90;;
5981;SDS011;3018;48.730;9.336;2023-06-24T09:48:44;3.00;;;2.80;;
5981;SDS011;3018;48.730;9.336;2023-06-24T09:51:10;3.20;;;3.00;;
5981;SDS011;3018;48.730;9.336;2023-06-24T09:53:37;3.15;;;2.97;;
5981;SDS011;3018;48.730;9.336;2023-06-24T09:56:04;3.00;;;2.90;;
5981;SDS011;3018;48.730;9.336;2023-06-24T09:58:31;3.72;;;3.20;;
5981;SDS011;3018;48.730;9.336;2023-06-24T10:00:58;3.33;;;3.13;;
5981;SDS011;3018;48.730;9.336;2023-06-24T10:03:28;2.92;;;2.75;;
5981;SDS011;3018;48.730;9.336;2023-06-24T10:05:55;3.15;;;2.95;;
5981;SDS011;3018;48.730;9.336;2023-06-24T10:08:22;3.00;;;2.75;;
5981;SDS011;3018;48.730;9.336;2023-06-24T10:10:48;3.47;;;3.20;;
5981;SDS011;3018;48.730;9.336;2023-06-24T10:13:14;3.88;;;2.83;;
5981;SDS011;3018;48.730;9.336;2023-06-24T10:15:41;3.30;;;3.10;;
5981;SDS011;3018;48.730;9.336;2023-06-24T10:20:50;2.80;;;2.70;;
5981;SDS011;3018;48.730;9.336;2023-06-24T10:23:16;2.65;;;2.55;;
5981;SDS011;3018;48.730;9.336;2023-06-24T10:25:42;2.97;;;2.88;;
5981;SDS011;3018;48.730;9.336;2023-06-24T10:28:12;3.55;;;3.20;;
5981;SDS011;3018;48.730;9.336;2023-06-24T10:30:39;3.63;;;3.00;;
5981;SDS011;3018;48.730;9.336;2023-06-24T10:33:08;3.25;;;3.08;;
5981;SDS011;3018;48.730;9.336;2023-06-24T10:35:38;2.95;;;2.85;;
5981;SDS011;3018;48.730;9.336;2023-06-24T10:38:10;3.22;;;3.00;;
5981;SDS011;3018;48.730;9.336;2023-06-24T10:40:37;3.95;;;3.03;;
5981;SDS011;3018;48.730;9.336;2023-06-24T10:43:24;3.05;;;2.95;;
5981;SDS011;3018;48.730;9.336;2023-06-24T10:45:51;2.80;;;2.70;;
5981;SDS011;3018;48.730;9.336;2023-06-24T10:48:18;3.00;;;2.80;;
5981;SDS011;3018;48.730;9.336;2023-06-24T10:50:45;3.30;;;3.20;;
5981;SDS011;3018;48.730;9.336;2023-06-24T10:53:13;3.40;;;3.20;;
5981;SDS011;3018;48.730;9.336;2023-06-24T10:55:39;3.10;;;3.00;;
5981;SDS011;3018;48.730;9.336;2023-06-24T10:58:09;3.50;;;3.20;;
5981;SDS011;3018;48.730;9.336;2023-06-24T11:00:36;3.20;;;3.00;;
5981;SDS011;3018;48.730;9.336;2023-06-24T11:03:07;3.00;;;2.80;;
5981;SDS011;3018;48.730;9.336;2023-06-24T11:05:33;3.15;;;2.95;;
5981;SDS011;3018;48.730;9.336;2023-06-24T11:08:00;2.63;;;2.53;;
5981;SDS011;3018;48.730;9.336;2023-06-24T11:10:27;4.43;;;2.92;;
5981;SDS011;3018;48.730;9.336;2023-06-24T11:12:54;2.80;;;2.70;;
5981;SDS011;3018;48.730;9.336;2023-06-24T11:15:22;3.22;;;3.05;;
5981;SDS011;3018;48.730;9.336;2023-06-24T11:17:50;3.15;;;3.05;;
5981;SDS011;3018;48.730;9.336;2023-06-24T11:20:16;2.72;;;2.63;;
5981;SDS011;3018;48.730;9.336;2023-06-24T11:22:43;2.85;;;2.65;;
5981;SDS011;3018;48.730;9.336;2023-06-24T11:25:14;2.88;;;2.67;;
5981;SDS011;3018;48.730;9.336;2023-06-24T11:27:42;2.88;;;2.78;;
5981;SDS011;3018;48.730;9.336;2023-06-24T11:30:08;2.55;;;2.50;;
5981;SDS011;3018;48.730;9.336;2023-06-24T11:32:35;2.90;;;2.70;;
5981;SDS011;3018;48.730;9.336;2023-06-24T11:35:02;2.85;;;2.75;;
5981;SDS011;3018;48.730;9.336;2023-06-24T11:37:30;2.83;;;2.72;;
5981;SDS011;3018;48.730;9.336;2023-06-24T11:40:00;2.78;;;2.67;;
5981;SDS011;3018;48.730;9.336;2023-06-24T11:42:28;2.50;;;2.40;;
5981;SDS011;3018;48.730;9.336;2023-06-24T11:44:59;2.45;;;2.35;;
5981;SDS011;3018;48.730;9.336;2023-06-24T11:47:26;4.10;;;2.75;;
5981;SDS011;3018;48.730;9.336;2023-06-24T11:49:55;2.55;;;2.45;;
5981;SDS011;3018;48.730;9.336;2023-06-24T11:52:27;2.70;;;2.60;;
5981;SDS011;3018;48.730;9.336;2023-06-24T11:54:53;2.80;;;2.50;;
5981;SDS011;3018;48.730;9.336;2023-06-24T11:57:19;2.92;;;2.70;;
5981;SDS011;3018;48.730;9.336;2023-06-24T11:59:46;2.42;;;2.33;;
5981;SDS011;3018;48.730;9.336;2023-06-24T12:02:18;2.67;;;2.58;;
5981;SDS011;3018;48.730;9.336;2023-06-24T12:04:45;2.83;;;2.72;;
5981;SDS011;3018;48.730;9.336;2023-06-24T12:07:11;4.03;;;2.33;;
5981;SDS011;3018;48.730;9.336;2023-06-24T12:09:38;2.42;;;2.33;;
5981;SDS011;3018;48.730;9.336;2023-06-24T12:12:04;2.50;;;2.40;;
5981;SDS011;3018;48.730;9.336;2023-06-24T12:14:31;3.75;;;2.83;;
5981;SDS011;3018;48.730;9.336;2023-06-24T12:16:57;3.05;;;2.85;;
5981;SDS011;3018;48.730;9.336;2023-06-24T12:19:25;2.70;;;2.60;;
5981;SDS011;3018;48.730;9.336;2023-06-24T12:21:52;2.78;;;2.67;;
5981;SDS011;3018;48.730;9.336;2023-06-24T12:24:18;2.92;;;2.72;;
5981;SDS011;3018;48.730;9.336;2023-06-24T12:26:44;2.63;;;2.42;;
5981;SDS011;3018;48.730;9.336;2023-06-24T12:29:12;2.63;;;2.42;;
5981;SDS011;3018;48.730;9.336;2023-06-24T12:31:38;2.78;;;2.63;;
5981;SDS011;3018;48.730;9.336;2023-06-24T12:34:04;2.92;;;2.83;;
5981;SDS011;3018;48.730;9.336;2023-06-24T12:36:32;3.67;;;2.50;;
5981;SDS011;3018;48.730;9.336;2023-06-24T12:38:58;2.80;;;2.60;;
5981;SDS011;3018;48.730;9.336;2023-06-24T12:41:25;2.47;;;2.38;;
5981;SDS011;3018;48.730;9.336;2023-06-24T12:43:53;2.58;;;2.47;;
5981;SDS011;3018;48.730;9.336;2023-06-24T12:46:19;2.65;;;2.45;;
5981;SDS011;3018;48.730;9.336;2023-06-24T12:48:45;2.60;;;2.50;;
5981;SDS011;3018;48.730;9.336;2023-06-24T12:51:12;2.47;;;2.38;;
5981;SDS011;3018;48.730;9.336;2023-06-24T12:53:39;2.50;;;2.30;;
5981;SDS011;3018;48.730;9.336;2023-06-24T12:56:05;2.65;;;2.45;;
5981;SDS011;3018;48.730;9.336;2023-06-24T12:58:33;2.88;;;2.67;;
5981;SDS011;3018;48.730;9.336;2023-06-24T13:01:00;3.35;;;2.50;;
5981;SDS011;3018;48.730;9.336;2023-06-24T13:03:26;2.55;;;2.33;;
5981;SDS011;3018;48.730;9.336;2023-06-24T13:05:52;3.03;;;2.60;;
5981;SDS011;3018;48.730;9.336;2023-06-24T13:08:19;2.50;;;2.40;;
5981;SDS011;3018;48.730;9.336;2023-06-24T13:10:46;2.58;;;2.47;;
5981;SDS011;3018;48.730;9.336;2023-06-24T13:13:13;2.60;;;2.50;;
5981;SDS011;3018;48.730;9.336;2023-06-24T13:15:39;2.33;;;2.25;;
5981;SDS011;3018;48.730;9.336;2023-06-24T13:18:06;2.60;;;2.35;;
5981;SDS011;3018;48.730;9.336;2023-06-24T13:20:32;2.85;;;2.67;;
5981;SDS011;3018;48.730;9.336;2023-06-24T13:22:58;2.70;;;2.60;;
5981;SDS011;3018;48.730;9.336;2023-06-24T13:25:24;2.80;;;2.60;;
5981;SDS011;3018;48.730;9.336;2023-06-24T13:27:52;2.80;;;2.70;;
5981;SDS011;3018;48.730;9.336;2023-06-24T13:30:19;2.10;;;2.00;;
5981;SDS011;3018;48.730;9.336;2023-06-24T13:32:45;2.40;;;2.30;;
5981;SDS011;3018;48.730;9.336;2023-06-24T13:35:11;2.72;;;2.63;;
5981;SDS011;3018;48.730;9.336;2023-06-24T13:37:37;2.70;;;2.60;;
5981;SDS011;3018;48.730;9.336;2023-06-24T13:40:05;2.72;;;2.63;;
5981;SDS011;3018;48.730;9.336;2023-06-24T13:42:32;2.53;;;2.33;;
5981;SDS011;3018;48.730;9.336;2023-06-24T13:44:59;2.78;;;2.67;;
5981;SDS011;3018;48.730;9.336;2023-06-24T13:47:26;2.60;;;2.50;;
5981;SDS011;3018;48.730;9.336;2023-06-24T13:49:52;3.10;;;2.90;;
5981;SDS011;3018;48.730;9.336;2023-06-24T13:52:18;3.45;;;2.20;;
5981;SDS011;3018;48.730;9.336;2023-06-24T13:54:46;2.75;;;2.55;;
5981;SDS011;3018;48.730;9.336;2023-06-24T13:57:12;2.58;;;2.47;;
5981;SDS011;3018;48.730;9.336;2023-06-24T13:59:38;2.65;;;2.40;;
5981;SDS011;3018;48.730;9.336;2023-06-24T14:02:06;3.00;;;2.80;;
5981;SDS011;3018;48.730;9.336;2023-06-24T14:04:33;2.28;;;2.17;;
5981;SDS011;3018;48.730;9.336;2023-06-24T14:06:59;2.75;;;2.63;;
5981;SDS011;3018;48.730;9.336;2023-06-24T14:09:27;2.92;;;2.72;;
5981;SDS011;3018;48.730;9.336;2023-06-24T14:11:53;2.83;;;2.63;;
5981;SDS011;3018;48.730;9.336;2023-06-24T14:14:20;2.92;;;2.65;;
5981;SDS011;3018;48.730;9.336;2023-06-24T14:16:46;3.08;;;2.55;;
5981;SDS011;3018;48.730;9.336;2023-06-24T14:19:14;2.90;;;2.70;;
5981;SDS011;3018;48.730;9.336;2023-06-24T14:21:40;2.60;;;2.50;;
5981;SDS011;3018;48.730;9.336;2023-06-24T14:24:07;2.75;;;2.65;;
5981;SDS011;3018;48.730;9.336;2023-06-24T14:26:35;4.95;;;2.55;;
5981;SDS011;3018;48.730;9.336;2023-06-24T14:29:02;3.20;;;2.40;;
5981;SDS011;3018;48.730;9.336;2023-06-24T14:31:28;2.50;;;2.40;;
5981;SDS011;3018;48.730;9.336;2023-06-24T14:33:54;2.63;;;2.53;;
5981;SDS011;3018;48.730;9.336;2023-06-24T14:36:22;2.58;;;2.47;;
5981;SDS011;3018;48.730;9.336;2023-06-24T14:38:48;2.53;;;2.42;;
5981;SDS011;3018;48.730;9.336;2023-06-24T14:41:14;2.50;;;2.40;;
5981;SDS011;3018;48.730;9.336;2023-06-24T14:43:41;2.53;;;2.33;;
5981;SDS011;3018;48.730;9.336;2023-06-24T14:46:07;2.80;;;2.70;;
5981;SDS011;3018;48.730;9.336;2023-06-24T14:48:33;2.97;;;2.78;;
5981;SDS011;3018;48.730;9.336;2023-06-24T14:51:01;2.47;;;2.38;;
5981;SDS011;3018;48.730;9.336;2023-06-24T14:53:28;2.63;;;2.53;;
5981;SDS011;3018;48.730;9.336;2023-06-24T14:55:55;2.42;;;2.33;;
5981;SDS011;3018;48.730;9.336;2023-06-24T14:58:21;2.80;;;2.58;;
5981;SDS011;3018;48.730;9.336;2023-06-24T15:00:47;3.90;;;2.50;;
5981;SDS011;3018;48.730;9.336;2023-06-24T15:03:13;2.35;;;2.25;;
5981;SDS011;3018;48.730;9.336;2023-06-24T15:05:40;2.97;;;2.88;;
5981;SDS011;3018;48.730;9.336;2023-06-24T15:08:06;2.58;;;2.47;;
5981;SDS011;3018;48.730;9.336;2023-06-24T15:10:33;2.95;;;2.85;;
5981;SDS011;3018;48.730;9.336;2023-06-24T15:13:00;2.72;;;2.63;;
5981;SDS011;3018;48.730;9.336;2023-06-24T15:15:26;3.00;;;2.80;;
5981;SDS011;3018;48.730;9.336;2023-06-24T15:17:52;2.70;;;2.50;;
5981;SDS011;3018;48.730;9.336;2023-06-24T15:20:19;3.72;;;2.90;;
5981;SDS011;3018;48.730;9.336;2023-06-24T15:22:45;2.80;;;2.60;;